sensor_id;sensor_type;location;lat;lon;timestamp;P1;durP1;ratioP1;P2;durP2;ratioP2
62687;SDS011;48752;51.056;17.056;2023-01-16T00:01:30;2.22;;;1.23;;
62687;SDS011;48752;51.056;17.056;2023-01-16T00:04:00;3.25;;;1.67;;
62687;SDS011;48752;51.056;17.056;2023-01-16T00:06:47;2.15;;;1.35;;
62687;SDS011;48752;51.056;17.056;2023-01-16T00:09:14;4.47;;;1.50;;
62687;SDS011;48752;51.056;17.056;2023-01-16T00:11:39;3.55;;;1.95;;
62687;SDS011;48752;51.056;17.056;2023-01-16T00:14:06;2.38;;;1.15;;
62687;SDS011;48752;51.056;17.056;2023-01-16T00:16:32;3.60;;;1.40;;
62687;SDS011;48752;51.056;17.056;2023-01-16T00:18:59;2.90;;;1.15;;
62687;SDS011;48752;51.056;17.056;2023-01-16T00:21:25;2.13;;;1.50;;
62687;SDS011;48752;51.056;17.056;2023-01-16T00:23:53;3.63;;;1.23;;
62687;SDS011;48752;51.056;17.056;2023-01-16T00:26:20;1.65;;;1.20;;
62687;SDS011;48752;51.056;17.056;2023-01-16T00:28:50;1.85;;;1.08;;
62687;SDS011;48752;51.056;17.056;2023-01-16T00:31:15;1.67;;;0.85;;
62687;SDS011;48752;51.056;17.056;2023-01-16T00:33:41;1.35;;;1.10;;
62687;SDS011;48752;51.056;17.056;2023-01-16T00:36:13;0.95;;;0.82;;
62687;SDS011;48752;51.056;17.056;2023-01-16T00:38:50;2.15;;;0.98;;
62687;SDS011;48752;51.056;17.056;2023-01-16T00:41:24;1.88;;;1.50;;
62687;SDS011;48752;51.056;17.056;2023-01-16T00:43:49;1.58;;;0.70;;
62687;SDS011;48752;51.056;17.056;2023-01-16T00:46:16;1.10;;;1.00;;
62687;SDS011;48752;51.056;17.056;2023-01-16T00:48:42;1.38;;;1.27;;
62687;SDS011;48752;51.056;17.056;2023-01-16T00:51:08;2.20;;;1.20;;
62687;SDS011;48752;51.056;17.056;2023-01-16T00:53:33;2.00;;;1.30;;
62687;SDS011;48752;51.056;17.056;2023-01-16T00:55:58;4.50;;;1.60;;
62687;SDS011;48752;51.056;17.056;2023-01-16T00:58:25;2.47;;;1.27;;
62687;SDS011;48752;51.056;17.056;2023-01-16T01:00:52;4.60;;;1.30;;
62687;SDS011;48752;51.056;17.056;2023-01-16T01:03:19;1.38;;;1.23;;
62687;SDS011;48752;51.056;17.056;2023-01-16T01:05:44;2.05;;;1.40;;
62687;SDS011;48752;51.056;17.056;2023-01-16T01:08:11;0.82;;;0.82;;
62687;SDS011;48752;51.056;17.056;2023-01-16T01:10:37;2.55;;;1.35;;
62687;SDS011;48752;51.056;17.056;2023-01-16T01:13:06;2.40;;;1.17;;
62687;SDS011;48752;51.056;17.056;2023-01-16T01:15:33;1.75;;;1.15;;
62687;SDS011;48752;51.056;17.056;2023-01-16T01:17:59;4.85;;;1.55;;
62687;SDS011;48752;51.056;17.056;2023-01-16T01:20:25;2.97;;;1.20;;
62687;SDS011;48752;51.056;17.056;2023-01-16T01:22:50;1.13;;;0.85;;
62687;SDS011;48752;51.056;17.056;2023-01-16T01:25:17;1.67;;;1.30;;
62687;SDS011;48752;51.056;17.056;2023-01-16T01:27:43;2.35;;;1.58;;
62687;SDS011;48752;51.056;17.056;2023-01-16T01:30:10;4.47;;;2.03;;
62687;SDS011;48752;51.056;17.056;2023-01-16T01:32:37;7.68;;;2.00;;
62687;SDS011;48752;51.056;17.056;2023-01-16T01:35:06;5.13;;;2.20;;
62687;SDS011;48752;51.056;17.056;2023-01-16T01:37:33;6.32;;;1.90;;
62687;SDS011;48752;51.056;17.056;2023-01-16T01:40:00;8.27;;;1.80;;
62687;SDS011;48752;51.056;17.056;2023-01-16T01:42:25;5.50;;;1.98;;
62687;SDS011;48752;51.056;17.056;2023-01-16T01:45:21;2.33;;;1.15;;
62687;SDS011;48752;51.056;17.056;2023-01-16T01:50:56;2.05;;;1.30;;
62687;SDS011;48752;51.056;17.056;2023-01-16T01:53:30;4.75;;;1.77;;
62687;SDS011;48752;51.056;17.056;2023-01-16T01:56:05;2.40;;;1.42;;
62687;SDS011;48752;51.056;17.056;2023-01-16T01:58:56;2.25;;;1.30;;
62687;SDS011;48752;51.056;17.056;2023-01-16T02:01:24;4.50;;;1.67;;
62687;SDS011;48752;51.056;17.056;2023-01-16T02:03:51;2.92;;;1.42;;
62687;SDS011;48752;51.056;17.056;2023-01-16T02:06:28;4.00;;;1.23;;
62687;SDS011;48752;51.056;17.056;2023-01-16T02:11:27;1.38;;;1.13;;
62687;SDS011;48752;51.056;17.056;2023-01-16T02:14:05;1.85;;;1.40;;
62687;SDS011;48752;51.056;17.056;2023-01-16T02:16:33;6.03;;;1.80;;
62687;SDS011;48752;51.056;17.056;2023-01-16T02:19:18;2.55;;;1.00;;
62687;SDS011;48752;51.056;17.056;2023-01-16T02:22:09;2.67;;;1.35;;
62687;SDS011;48752;51.056;17.056;2023-01-16T02:44:13;2.88;;;1.55;;
62687;SDS011;48752;51.056;17.056;2023-01-16T02:49:42;2.58;;;1.13;;
62687;SDS011;48752;51.056;17.056;2023-01-16T02:55:30;1.75;;;1.20;;
62687;SDS011;48752;51.056;17.056;2023-01-16T02:58:01;2.58;;;1.10;;
62687;SDS011;48752;51.056;17.056;2023-01-16T03:00:31;3.70;;;1.33;;
62687;SDS011;48752;51.056;17.056;2023-01-16T03:02:58;3.65;;;1.38;;
62687;SDS011;48752;51.056;17.056;2023-01-16T03:05:24;1.30;;;0.95;;
62687;SDS011;48752;51.056;17.056;2023-01-16T03:16:41;2.22;;;1.20;;
62687;SDS011;48752;51.056;17.056;2023-01-16T03:24:57;3.25;;;1.50;;
62687;SDS011;48752;51.056;17.056;2023-01-16T03:27:39;3.95;;;1.42;;
62687;SDS011;48752;51.056;17.056;2023-01-16T03:36:10;2.15;;;1.50;;
62687;SDS011;48752;51.056;17.056;2023-01-16T03:38:44;3.65;;;1.52;;
62687;SDS011;48752;51.056;17.056;2023-01-16T03:41:13;3.22;;;1.02;;
62687;SDS011;48752;51.056;17.056;2023-01-16T03:43:40;2.85;;;1.35;;
62687;SDS011;48752;51.056;17.056;2023-01-16T03:46:12;8.50;;;1.88;;
62687;SDS011;48752;51.056;17.056;2023-01-16T03:51:19;4.95;;;1.10;;
62687;SDS011;48752;51.056;17.056;2023-01-16T03:53:57;4.10;;;1.83;;
62687;SDS011;48752;51.056;17.056;2023-01-16T03:59:42;1.00;;;1.00;;
62687;SDS011;48752;51.056;17.056;2023-01-16T04:04:55;5.32;;;1.10;;
62687;SDS011;48752;51.056;17.056;2023-01-16T04:07:44;6.28;;;1.58;;
62687;SDS011;48752;51.056;17.056;2023-01-16T04:10:18;3.25;;;1.25;;
62687;SDS011;48752;51.056;17.056;2023-01-16T04:12:51;1.27;;;0.93;;
62687;SDS011;48752;51.056;17.056;2023-01-16T04:15:31;2.80;;;1.98;;
62687;SDS011;48752;51.056;17.056;2023-01-16T04:17:57;6.88;;;3.05;;
62687;SDS011;48752;51.056;17.056;2023-01-16T04:20:24;4.50;;;1.67;;
62687;SDS011;48752;51.056;17.056;2023-01-16T04:22:51;8.15;;;2.10;;
62687;SDS011;48752;51.056;17.056;2023-01-16T04:25:18;8.10;;;1.92;;
62687;SDS011;48752;51.056;17.056;2023-01-16T04:27:52;2.80;;;1.50;;
62687;SDS011;48752;51.056;17.056;2023-01-16T04:30:18;5.97;;;1.42;;
62687;SDS011;48752;51.056;17.056;2023-01-16T04:32:45;2.58;;;1.95;;
62687;SDS011;48752;51.056;17.056;2023-01-16T04:35:12;1.73;;;1.52;;
62687;SDS011;48752;51.056;17.056;2023-01-16T04:37:39;2.67;;;1.80;;
62687;SDS011;48752;51.056;17.056;2023-01-16T04:40:05;3.13;;;1.65;;
62687;SDS011;48752;51.056;17.056;2023-01-16T04:42:33;2.45;;;1.38;;
62687;SDS011;48752;51.056;17.056;2023-01-16T04:45:04;3.70;;;1.90;;
62687;SDS011;48752;51.056;17.056;2023-01-16T04:47:31;6.63;;;2.25;;
62687;SDS011;48752;51.056;17.056;2023-01-16T04:49:56;3.55;;;1.98;;
62687;SDS011;48752;51.056;17.056;2023-01-16T04:52:23;5.78;;;2.25;;
62687;SDS011;48752;51.056;17.056;2023-01-16T04:54:49;6.25;;;2.25;;
62687;SDS011;48752;51.056;17.056;2023-01-16T04:57:14;8.27;;;2.40;;
62687;SDS011;48752;51.056;17.056;2023-01-16T04:59:40;5.15;;;2.00;;
62687;SDS011;48752;51.056;17.056;2023-01-16T05:02:05;5.20;;;1.65;;
62687;SDS011;48752;51.056;17.056;2023-01-16T05:04:31;2.92;;;1.70;;
62687;SDS011;48752;51.056;17.056;2023-01-16T05:06:57;3.33;;;1.80;;
62687;SDS011;48752;51.056;17.056;2023-01-16T05:09:23;3.25;;;1.45;;
62687;SDS011;48752;51.056;17.056;2023-01-16T05:11:49;5.05;;;1.20;;
62687;SDS011;48752;51.056;17.056;2023-01-16T05:14:15;5.57;;;2.30;;
62687;SDS011;48752;51.056;17.056;2023-01-16T05:16:42;2.53;;;1.23;;
62687;SDS011;48752;51.056;17.056;2023-01-16T05:19:07;3.10;;;1.20;;
62687;SDS011;48752;51.056;17.056;2023-01-16T05:21:33;3.72;;;1.90;;
62687;SDS011;48752;51.056;17.056;2023-01-16T05:23:58;4.28;;;1.63;;
62687;SDS011;48752;51.056;17.056;2023-01-16T05:26:24;2.33;;;1.58;;
62687;SDS011;48752;51.056;17.056;2023-01-16T05:28:50;3.83;;;1.52;;
62687;SDS011;48752;51.056;17.056;2023-01-16T05:31:15;14.40;;;2.30;;
62687;SDS011;48752;51.056;17.056;2023-01-16T05:33:41;3.35;;;1.80;;
62687;SDS011;48752;51.056;17.056;2023-01-16T05:36:06;3.80;;;2.20;;
62687;SDS011;48752;51.056;17.056;2023-01-16T05:38:34;5.97;;;2.53;;
62687;SDS011;48752;51.056;17.056;2023-01-16T05:41:00;8.77;;;2.80;;
62687;SDS011;48752;51.056;17.056;2023-01-16T05:43:26;5.60;;;2.33;;
62687;SDS011;48752;51.056;17.056;2023-01-16T05:45:53;4.00;;;2.03;;
62687;SDS011;48752;51.056;17.056;2023-01-16T05:48:21;4.63;;;1.92;;
62687;SDS011;48752;51.056;17.056;2023-01-16T05:50:49;4.57;;;2.22;;
62687;SDS011;48752;51.056;17.056;2023-01-16T05:53:23;4.10;;;1.95;;
62687;SDS011;48752;51.056;17.056;2023-01-16T05:55:48;3.22;;;1.83;;
62687;SDS011;48752;51.056;17.056;2023-01-16T05:58:15;6.35;;;2.50;;
62687;SDS011;48752;51.056;17.056;2023-01-16T06:00:42;6.85;;;2.15;;
62687;SDS011;48752;51.056;17.056;2023-01-16T06:03:15;6.55;;;2.28;;
62687;SDS011;48752;51.056;17.056;2023-01-16T06:05:41;4.32;;;2.00;;
62687;SDS011;48752;51.056;17.056;2023-01-16T06:08:15;5.07;;;2.20;;
62687;SDS011;48752;51.056;17.056;2023-01-16T06:10:41;5.40;;;2.38;;
62687;SDS011;48752;51.056;17.056;2023-01-16T06:13:10;9.32;;;2.40;;
62687;SDS011;48752;51.056;17.056;2023-01-16T06:15:37;2.75;;;2.00;;
62687;SDS011;48752;51.056;17.056;2023-01-16T06:18:02;3.97;;;1.65;;
62687;SDS011;48752;51.056;17.056;2023-01-16T06:23:44;4.93;;;1.92;;
62687;SDS011;48752;51.056;17.056;2023-01-16T06:26:12;3.53;;;1.55;;
62687;SDS011;48752;51.056;17.056;2023-01-16T06:28:38;8.27;;;1.60;;
62687;SDS011;48752;51.056;17.056;2023-01-16T06:31:05;5.95;;;2.03;;
62687;SDS011;48752;51.056;17.056;2023-01-16T06:33:39;3.03;;;1.55;;
62687;SDS011;48752;51.056;17.056;2023-01-16T06:36:04;3.17;;;1.40;;
62687;SDS011;48752;51.056;17.056;2023-01-16T06:38:31;3.35;;;1.15;;
62687;SDS011;48752;51.056;17.056;2023-01-16T06:40:56;3.15;;;1.50;;
62687;SDS011;48752;51.056;17.056;2023-01-16T06:43:26;1.63;;;1.05;;
62687;SDS011;48752;51.056;17.056;2023-01-16T06:45:52;5.63;;;1.65;;
62687;SDS011;48752;51.056;17.056;2023-01-16T06:48:17;5.85;;;1.88;;
62687;SDS011;48752;51.056;17.056;2023-01-16T06:50:43;5.70;;;1.80;;
62687;SDS011;48752;51.056;17.056;2023-01-16T06:53:09;3.67;;;1.90;;
62687;SDS011;48752;51.056;17.056;2023-01-16T06:55:35;4.07;;;2.17;;
62687;SDS011;48752;51.056;17.056;2023-01-16T06:58:01;2.83;;;2.03;;
62687;SDS011;48752;51.056;17.056;2023-01-16T07:00:26;4.18;;;2.30;;
62687;SDS011;48752;51.056;17.056;2023-01-16T07:02:52;4.72;;;1.55;;
62687;SDS011;48752;51.056;17.056;2023-01-16T07:05:22;7.60;;;2.95;;
62687;SDS011;48752;51.056;17.056;2023-01-16T07:07:50;4.85;;;2.40;;
62687;SDS011;48752;51.056;17.056;2023-01-16T07:10:16;2.08;;;1.45;;
62687;SDS011;48752;51.056;17.056;2023-01-16T07:12:42;5.43;;;2.33;;
62687;SDS011;48752;51.056;17.056;2023-01-16T07:15:08;5.25;;;1.90;;
62687;SDS011;48752;51.056;17.056;2023-01-16T07:17:52;3.85;;;2.00;;
62687;SDS011;48752;51.056;17.056;2023-01-16T07:20:36;5.03;;;2.17;;
62687;SDS011;48752;51.056;17.056;2023-01-16T07:23:24;2.15;;;1.80;;
62687;SDS011;48752;51.056;17.056;2023-01-16T07:25:51;5.97;;;2.22;;
62687;SDS011;48752;51.056;17.056;2023-01-16T07:28:18;5.50;;;2.42;;
62687;SDS011;48752;51.056;17.056;2023-01-16T07:30:43;3.58;;;1.95;;
62687;SDS011;48752;51.056;17.056;2023-01-16T07:33:10;5.00;;;2.50;;
62687;SDS011;48752;51.056;17.056;2023-01-16T07:35:35;12.05;;;3.17;;
62687;SDS011;48752;51.056;17.056;2023-01-16T07:38:01;9.18;;;3.67;;
62687;SDS011;48752;51.056;17.056;2023-01-16T07:40:27;5.53;;;2.83;;
62687;SDS011;48752;51.056;17.056;2023-01-16T07:42:52;11.32;;;5.53;;
62687;SDS011;48752;51.056;17.056;2023-01-16T07:45:17;14.13;;;5.40;;
62687;SDS011;48752;51.056;17.056;2023-01-16T07:47:43;10.93;;;3.65;;
62687;SDS011;48752;51.056;17.056;2023-01-16T07:50:09;8.13;;;3.17;;
62687;SDS011;48752;51.056;17.056;2023-01-16T07:52:34;7.97;;;2.88;;
62687;SDS011;48752;51.056;17.056;2023-01-16T07:54:59;9.48;;;3.85;;
62687;SDS011;48752;51.056;17.056;2023-01-16T07:57:25;7.07;;;2.33;;
62687;SDS011;48752;51.056;17.056;2023-01-16T07:59:50;5.35;;;3.35;;
62687;SDS011;48752;51.056;17.056;2023-01-16T08:02:16;8.27;;;3.10;;
62687;SDS011;48752;51.056;17.056;2023-01-16T08:04:41;5.97;;;3.20;;
62687;SDS011;48752;51.056;17.056;2023-01-16T08:07:07;12.45;;;3.22;;
62687;SDS011;48752;51.056;17.056;2023-01-16T08:09:32;11.30;;;3.92;;
62687;SDS011;48752;51.056;17.056;2023-01-16T08:11:58;9.68;;;3.53;;
62687;SDS011;48752;51.056;17.056;2023-01-16T08:14:23;11.38;;;3.60;;
62687;SDS011;48752;51.056;17.056;2023-01-16T08:16:48;11.80;;;3.85;;
62687;SDS011;48752;51.056;17.056;2023-01-16T08:19:14;5.60;;;3.38;;
62687;SDS011;48752;51.056;17.056;2023-01-16T08:21:39;10.52;;;3.80;;
62687;SDS011;48752;51.056;17.056;2023-01-16T08:24:05;10.30;;;3.63;;
62687;SDS011;48752;51.056;17.056;2023-01-16T08:26:30;16.85;;;3.67;;
62687;SDS011;48752;51.056;17.056;2023-01-16T08:28:56;9.60;;;2.85;;
62687;SDS011;48752;51.056;17.056;2023-01-16T08:31:22;6.75;;;2.65;;
62687;SDS011;48752;51.056;17.056;2023-01-16T08:33:48;6.82;;;2.83;;
62687;SDS011;48752;51.056;17.056;2023-01-16T08:36:14;6.68;;;3.78;;
62687;SDS011;48752;51.056;17.056;2023-01-16T08:38:41;7.55;;;2.97;;
62687;SDS011;48752;51.056;17.056;2023-01-16T08:41:08;9.32;;;3.88;;
62687;SDS011;48752;51.056;17.056;2023-01-16T08:43:53;15.02;;;3.47;;
62687;SDS011;48752;51.056;17.056;2023-01-16T08:46:37;6.60;;;2.40;;
62687;SDS011;48752;51.056;17.056;2023-01-16T08:49:21;10.55;;;2.20;;
62687;SDS011;48752;51.056;17.056;2023-01-16T08:52:07;9.15;;;1.92;;
62687;SDS011;48752;51.056;17.056;2023-01-16T08:54:33;3.97;;;2.10;;
62687;SDS011;48752;51.056;17.056;2023-01-16T08:56:58;5.30;;;2.17;;
62687;SDS011;48752;51.056;17.056;2023-01-16T08:59:24;5.93;;;1.90;;
62687;SDS011;48752;51.056;17.056;2023-01-16T09:01:49;5.32;;;2.22;;
62687;SDS011;48752;51.056;17.056;2023-01-16T09:04:14;6.55;;;2.17;;
62687;SDS011;48752;51.056;17.056;2023-01-16T09:06:40;5.18;;;2.05;;
62687;SDS011;48752;51.056;17.056;2023-01-16T09:09:06;4.65;;;2.00;;
62687;SDS011;48752;51.056;17.056;2023-01-16T09:11:32;4.28;;;1.58;;
62687;SDS011;48752;51.056;17.056;2023-01-16T09:14:17;3.83;;;1.40;;
62687;SDS011;48752;51.056;17.056;2023-01-16T09:16:42;7.50;;;2.85;;
62687;SDS011;48752;51.056;17.056;2023-01-16T09:19:08;6.07;;;2.22;;
62687;SDS011;48752;51.056;17.056;2023-01-16T09:21:34;3.30;;;1.52;;
62687;SDS011;48752;51.056;17.056;2023-01-16T09:23:59;5.55;;;1.23;;
62687;SDS011;48752;51.056;17.056;2023-01-16T09:26:24;4.47;;;1.10;;
62687;SDS011;48752;51.056;17.056;2023-01-16T09:28:50;5.85;;;1.30;;
62687;SDS011;48752;51.056;17.056;2023-01-16T09:31:15;7.05;;;1.25;;
62687;SDS011;48752;51.056;17.056;2023-01-16T09:33:41;2.40;;;1.15;;
62687;SDS011;48752;51.056;17.056;2023-01-16T09:36:07;2.50;;;1.20;;
62687;SDS011;48752;51.056;17.056;2023-01-16T09:38:33;3.33;;;1.38;;
62687;SDS011;48752;51.056;17.056;2023-01-16T09:40:58;3.40;;;1.38;;
62687;SDS011;48752;51.056;17.056;2023-01-16T09:46:23;2.83;;;1.42;;
62687;SDS011;48752;51.056;17.056;2023-01-16T09:48:51;4.20;;;1.50;;
62687;SDS011;48752;51.056;17.056;2023-01-16T09:51:28;5.80;;;1.55;;
62687;SDS011;48752;51.056;17.056;2023-01-16T09:54:01;2.88;;;1.42;;
62687;SDS011;48752;51.056;17.056;2023-01-16T09:56:53;4.40;;;2.10;;
62687;SDS011;48752;51.056;17.056;2023-01-16T10:02:12;2.55;;;1.25;;
62687;SDS011;48752;51.056;17.056;2023-01-16T10:05:00;4.68;;;1.20;;
62687;SDS011;48752;51.056;17.056;2023-01-16T10:18:21;3.40;;;1.77;;
62687;SDS011;48752;51.056;17.056;2023-01-16T10:25:58;4.85;;;1.85;;
62687;SDS011;48752;51.056;17.056;2023-01-16T10:28:34;23.10;;;4.38;;
62687;SDS011;48752;51.056;17.056;2023-01-16T10:31:22;10.10;;;1.80;;
62687;SDS011;48752;51.056;17.056;2023-01-16T10:33:59;11.30;;;2.35;;
62687;SDS011;48752;51.056;17.056;2023-01-16T10:36:28;13.35;;;3.13;;
62687;SDS011;48752;51.056;17.056;2023-01-16T10:38:57;10.73;;;3.13;;
62687;SDS011;48752;51.056;17.056;2023-01-16T10:44:26;9.35;;;3.28;;
62687;SDS011;48752;51.056;17.056;2023-01-16T10:47:15;11.05;;;2.95;;
62687;SDS011;48752;51.056;17.056;2023-01-16T10:50:00;19.63;;;3.78;;
62687;SDS011;48752;51.056;17.056;2023-01-16T10:52:26;10.77;;;2.70;;
62687;SDS011;48752;51.056;17.056;2023-01-16T10:54:52;9.57;;;2.95;;
62687;SDS011;48752;51.056;17.056;2023-01-16T10:57:19;13.57;;;4.07;;
62687;SDS011;48752;51.056;17.056;2023-01-16T10:59:45;9.52;;;2.67;;
62687;SDS011;48752;51.056;17.056;2023-01-16T11:02:19;12.63;;;3.17;;
62687;SDS011;48752;51.056;17.056;2023-01-16T11:04:51;8.60;;;2.60;;
62687;SDS011;48752;51.056;17.056;2023-01-16T11:07:18;13.38;;;2.47;;
62687;SDS011;48752;51.056;17.056;2023-01-16T11:09:44;6.07;;;3.80;;
62687;SDS011;48752;51.056;17.056;2023-01-16T11:12:21;10.52;;;2.42;;
62687;SDS011;48752;51.056;17.056;2023-01-16T11:15:28;8.70;;;2.42;;
62687;SDS011;48752;51.056;17.056;2023-01-16T11:21:16;7.63;;;3.05;;
62687;SDS011;48752;51.056;17.056;2023-01-16T11:23:44;3.03;;;1.92;;
62687;SDS011;48752;51.056;17.056;2023-01-16T11:26:12;6.00;;;3.15;;
62687;SDS011;48752;51.056;17.056;2023-01-16T11:28:38;16.00;;;2.75;;
62687;SDS011;48752;51.056;17.056;2023-01-16T11:31:12;12.25;;;3.10;;
62687;SDS011;48752;51.056;17.056;2023-01-16T11:33:42;3.97;;;2.13;;
62687;SDS011;48752;51.056;17.056;2023-01-16T11:36:26;5.35;;;2.17;;
62687;SDS011;48752;51.056;17.056;2023-01-16T11:38:54;7.82;;;3.08;;
62687;SDS011;48752;51.056;17.056;2023-01-16T11:41:23;4.60;;;1.85;;
62687;SDS011;48752;51.056;17.056;2023-01-16T11:47:17;6.63;;;2.10;;
62687;SDS011;48752;51.056;17.056;2023-01-16T11:49:49;7.65;;;2.97;;
62687;SDS011;48752;51.056;17.056;2023-01-16T11:52:19;14.38;;;2.65;;
62687;SDS011;48752;51.056;17.056;2023-01-16T11:54:55;9.75;;;2.13;;
62687;SDS011;48752;51.056;17.056;2023-01-16T12:05:41;7.28;;;2.13;;
62687;SDS011;48752;51.056;17.056;2023-01-16T12:11:08;8.02;;;4.07;;
62687;SDS011;48752;51.056;17.056;2023-01-16T12:13:43;8.85;;;2.95;;
62687;SDS011;48752;51.056;17.056;2023-01-16T12:19:40;4.68;;;2.20;;
62687;SDS011;48752;51.056;17.056;2023-01-16T12:30:17;5.55;;;3.38;;
62687;SDS011;48752;51.056;17.056;2023-01-16T12:48:02;5.93;;;2.53;;
62687;SDS011;48752;51.056;17.056;2023-01-16T12:50:48;11.60;;;2.60;;
62687;SDS011;48752;51.056;17.056;2023-01-16T12:56:16;4.60;;;2.67;;
62687;SDS011;48752;51.056;17.056;2023-01-16T12:58:37;6.60;;;2.47;;
62687;SDS011;48752;51.056;17.056;2023-01-16T13:03:44;5.47;;;2.40;;
62687;SDS011;48752;51.056;17.056;2023-01-16T13:06:36;7.25;;;2.53;;
62687;SDS011;48752;51.056;17.056;2023-01-16T13:09:21;7.95;;;3.80;;
62687;SDS011;48752;51.056;17.056;2023-01-16T13:12:18;7.20;;;3.60;;
62687;SDS011;48752;51.056;17.056;2023-01-16T13:15:21;7.72;;;3.03;;
62687;SDS011;48752;51.056;17.056;2023-01-16T13:17:52;8.02;;;2.70;;
62687;SDS011;48752;51.056;17.056;2023-01-16T13:20:25;6.15;;;2.63;;
62687;SDS011;48752;51.056;17.056;2023-01-16T13:22:55;6.90;;;2.97;;
62687;SDS011;48752;51.056;17.056;2023-01-16T13:28:00;4.60;;;1.92;;
62687;SDS011;48752;51.056;17.056;2023-01-16T13:30:55;2.25;;;1.73;;
62687;SDS011;48752;51.056;17.056;2023-01-16T13:33:27;6.97;;;2.33;;
62687;SDS011;48752;51.056;17.056;2023-01-16T13:43:56;9.80;;;3.08;;
62687;SDS011;48752;51.056;17.056;2023-01-16T13:47:05;6.43;;;2.28;;
62687;SDS011;48752;51.056;17.056;2023-01-16T13:49:32;6.47;;;2.50;;
62687;SDS011;48752;51.056;17.056;2023-01-16T13:51:59;4.10;;;2.17;;
62687;SDS011;48752;51.056;17.056;2023-01-16T13:54:34;5.90;;;2.67;;
62687;SDS011;48752;51.056;17.056;2023-01-16T13:57:02;12.13;;;3.05;;
62687;SDS011;48752;51.056;17.056;2023-01-16T13:59:48;7.18;;;3.10;;
62687;SDS011;48752;51.056;17.056;2023-01-16T14:07:47;7.65;;;3.50;;
62687;SDS011;48752;51.056;17.056;2023-01-16T14:13:18;7.28;;;3.08;;
62687;SDS011;48752;51.056;17.056;2023-01-16T14:15:50;9.68;;;3.80;;
62687;SDS011;48752;51.056;17.056;2023-01-16T14:18:42;9.75;;;3.40;;
62687;SDS011;48752;51.056;17.056;2023-01-16T14:24:46;10.23;;;4.72;;
62687;SDS011;48752;51.056;17.056;2023-01-16T14:27:14;9.30;;;4.65;;
62687;SDS011;48752;51.056;17.056;2023-01-16T14:29:47;11.85;;;5.35;;
62687;SDS011;48752;51.056;17.056;2023-01-16T14:32:25;11.80;;;6.20;;
62687;SDS011;48752;51.056;17.056;2023-01-16T14:37:24;9.10;;;3.55;;
62687;SDS011;48752;51.056;17.056;2023-01-16T14:39:59;5.97;;;3.45;;
62687;SDS011;48752;51.056;17.056;2023-01-16T14:45:43;5.28;;;2.75;;
62687;SDS011;48752;51.056;17.056;2023-01-16T14:52:46;7.10;;;2.90;;
62687;SDS011;48752;51.056;17.056;2023-01-16T14:58:23;5.40;;;3.22;;
62687;SDS011;48752;51.056;17.056;2023-01-16T15:01:02;9.43;;;4.00;;
62687;SDS011;48752;51.056;17.056;2023-01-16T15:03:50;7.13;;;3.78;;
62687;SDS011;48752;51.056;17.056;2023-01-16T15:06:16;9.73;;;3.53;;
62687;SDS011;48752;51.056;17.056;2023-01-16T15:08:43;6.72;;;3.35;;
62687;SDS011;48752;51.056;17.056;2023-01-16T15:11:31;10.20;;;3.45;;
62687;SDS011;48752;51.056;17.056;2023-01-16T15:17:17;8.00;;;3.13;;
62687;SDS011;48752;51.056;17.056;2023-01-16T15:23:00;10.85;;;4.78;;
62687;SDS011;48752;51.056;17.056;2023-01-16T15:25:32;10.10;;;4.63;;
62687;SDS011;48752;51.056;17.056;2023-01-16T15:34:17;11.40;;;6.45;;
62687;SDS011;48752;51.056;17.056;2023-01-16T15:36:45;13.65;;;5.30;;
62687;SDS011;48752;51.056;17.056;2023-01-16T15:45:00;10.40;;;4.05;;
62687;SDS011;48752;51.056;17.056;2023-01-16T15:53:15;7.93;;;2.97;;
62687;SDS011;48752;51.056;17.056;2023-01-16T15:55:44;9.93;;;4.43;;
62687;SDS011;48752;51.056;17.056;2023-01-16T15:58:27;9.55;;;3.92;;
62687;SDS011;48752;51.056;17.056;2023-01-16T16:00:57;8.80;;;4.75;;
62687;SDS011;48752;51.056;17.056;2023-01-16T16:03:30;7.35;;;4.07;;
62687;SDS011;48752;51.056;17.056;2023-01-16T16:06:12;9.68;;;4.65;;
62687;SDS011;48752;51.056;17.056;2023-01-16T16:09:02;8.65;;;4.78;;
62687;SDS011;48752;51.056;17.056;2023-01-16T16:11:31;11.38;;;4.80;;
62687;SDS011;48752;51.056;17.056;2023-01-16T16:14:35;20.08;;;6.30;;
62687;SDS011;48752;51.056;17.056;2023-01-16T16:17:21;12.98;;;6.93;;
62687;SDS011;48752;51.056;17.056;2023-01-16T16:23:14;11.82;;;5.60;;
62687;SDS011;48752;51.056;17.056;2023-01-16T16:31:25;16.58;;;6.93;;
62687;SDS011;48752;51.056;17.056;2023-01-16T16:36:23;13.93;;;7.53;;
62687;SDS011;48752;51.056;17.056;2023-01-16T16:38:49;16.35;;;8.30;;
62687;SDS011;48752;51.056;17.056;2023-01-16T16:44:22;24.55;;;8.88;;
62687;SDS011;48752;51.056;17.056;2023-01-16T16:47:23;15.63;;;7.10;;
62687;SDS011;48752;51.056;17.056;2023-01-16T16:49:50;17.70;;;7.78;;
62687;SDS011;48752;51.056;17.056;2023-01-16T16:52:20;14.00;;;6.53;;
62687;SDS011;48752;51.056;17.056;2023-01-16T16:54:54;12.05;;;7.15;;
62687;SDS011;48752;51.056;17.056;2023-01-16T16:57:25;12.93;;;6.10;;
62687;SDS011;48752;51.056;17.056;2023-01-16T16:59:52;19.42;;;8.05;;
62687;SDS011;48752;51.056;17.056;2023-01-16T17:02:19;20.13;;;8.18;;
62687;SDS011;48752;51.056;17.056;2023-01-16T17:04:46;11.30;;;6.13;;
62687;SDS011;48752;51.056;17.056;2023-01-16T17:07:12;13.43;;;6.70;;
62687;SDS011;48752;51.056;17.056;2023-01-16T17:09:38;15.65;;;7.15;;
62687;SDS011;48752;51.056;17.056;2023-01-16T17:12:14;13.77;;;6.25;;
62687;SDS011;48752;51.056;17.056;2023-01-16T17:14:41;34.90;;;7.82;;
62687;SDS011;48752;51.056;17.056;2023-01-16T17:17:09;19.02;;;9.18;;
62687;SDS011;48752;51.056;17.056;2023-01-16T17:19:36;19.73;;;9.23;;
62687;SDS011;48752;51.056;17.056;2023-01-16T17:22:02;22.10;;;9.23;;
62687;SDS011;48752;51.056;17.056;2023-01-16T17:24:27;21.90;;;9.30;;
62687;SDS011;48752;51.056;17.056;2023-01-16T17:26:53;27.08;;;10.50;;
62687;SDS011;48752;51.056;17.056;2023-01-16T17:29:18;21.70;;;9.75;;
62687;SDS011;48752;51.056;17.056;2023-01-16T17:31:44;24.77;;;9.45;;
62687;SDS011;48752;51.056;17.056;2023-01-16T17:34:14;15.63;;;8.02;;
62687;SDS011;48752;51.056;17.056;2023-01-16T17:36:41;17.55;;;7.85;;
62687;SDS011;48752;51.056;17.056;2023-01-16T17:39:07;18.60;;;8.70;;
62687;SDS011;48752;51.056;17.056;2023-01-16T17:41:34;15.75;;;7.35;;
62687;SDS011;48752;51.056;17.056;2023-01-16T17:44:18;17.67;;;7.78;;
62687;SDS011;48752;51.056;17.056;2023-01-16T17:47:06;16.92;;;8.45;;
62687;SDS011;48752;51.056;17.056;2023-01-16T17:49:46;16.63;;;8.07;;
62687;SDS011;48752;51.056;17.056;2023-01-16T17:52:29;20.98;;;10.18;;
62687;SDS011;48752;51.056;17.056;2023-01-16T17:54:56;25.92;;;10.90;;
62687;SDS011;48752;51.056;17.056;2023-01-16T17:57:40;20.13;;;9.48;;
62687;SDS011;48752;51.056;17.056;2023-01-16T18:00:06;25.95;;;10.57;;
62687;SDS011;48752;51.056;17.056;2023-01-16T18:02:33;23.05;;;10.32;;
62687;SDS011;48752;51.056;17.056;2023-01-16T18:05:03;25.27;;;9.82;;
62687;SDS011;48752;51.056;17.056;2023-01-16T18:07:31;23.65;;;9.43;;
62687;SDS011;48752;51.056;17.056;2023-01-16T18:09:59;21.92;;;8.60;;
62687;SDS011;48752;51.056;17.056;2023-01-16T18:12:25;18.88;;;9.52;;
62687;SDS011;48752;51.056;17.056;2023-01-16T18:15:10;19.00;;;9.48;;
62687;SDS011;48752;51.056;17.056;2023-01-16T18:17:55;20.42;;;8.38;;
62687;SDS011;48752;51.056;17.056;2023-01-16T18:20:23;85.95;;;31.65;;
62687;SDS011;48752;51.056;17.056;2023-01-16T18:22:49;148.48;;;57.50;;
62687;SDS011;48752;51.056;17.056;2023-01-16T18:25:17;184.60;;;60.85;;